Kendall Alyse — WDE4829 — position and weather

sailwx.info

Track history (hours):
 
Tides and Currents Weather Stations Pressure Air Temp Water Temp Dewpoint Dewpoint Depression Visibility Wind Speed Wind Dir Waves Ship Positions

Kendall Alyse

Owner: The Tug Kendall Alyse, L.L.C., Sugar Land, TX. More information available from US FCC via Universal Licensing System and Coast Guard Vessel Documentation Center.

Last reported at 2018-Jan-12 14:33 UTC. Time now 2018-Jan-18 07:54 UTC.
Position N 29°45' W 095°10'.

Length 20 m.

MMSI: 357358340.

Date/timePositionNaut miles runAvg speedWind from/ knotsBaromVisibWave heightAir tempDewpointWater temp
2018-Jan-12 14:33N 29°45' W 095°10'0 2.2
2018-Jan-12 14:27N 29°45' W 095°10'2 5.4
2018-Jan-12 13:59N 29°44' W 095°07'2 1.2
2018-Jan-12 11:58N 29°46' W 095°06'0 0.0
2018-Jan-12 11:30N 29°46' W 095°06'0 0.0
2018-Jan-12 10:59N 29°46' W 095°06'0 0.0
2018-Jan-12 10:30N 29°46' W 095°06'0 0.0
2018-Jan-12 10:00N 29°46' W 095°06'0 0.0
2018-Jan-12 09:30N 29°46' W 095°06'0 0.0
2018-Jan-12 09:00N 29°46' W 095°06'0 0.0
2018-Jan-12 08:30N 29°46' W 095°06'0 0.0
2018-Jan-12 07:57N 29°46' W 095°06'0 0.0
2018-Jan-12 07:29N 29°46' W 095°06'0 0.0
2018-Jan-12 07:00N 29°46' W 095°06'0 0.0
2018-Jan-12 06:30N 29°46' W 095°06'0 0.0
2018-Jan-12 05:59N 29°46' W 095°06'0 0.0
2018-Jan-12 05:28N 29°46' W 095°06'0 0.0
2018-Jan-12 04:59N 29°46' W 095°06'0 0.0
2018-Jan-12 04:29N 29°46' W 095°06'0 0.0
2018-Jan-12 04:00N 29°46' W 095°06'0 0.0
2018-Jan-12 03:29N 29°46' W 095°06'0 0.0
2018-Jan-12 02:54N 29°46' W 095°06'0 0.0
2018-Jan-12 02:27N 29°46' W 095°06'0 0.0
2018-Jan-12 01:57N 29°46' W 095°06'0 0.0
2018-Jan-12 01:29N 29°46' W 095°06'0 0.0
2018-Jan-12 01:00N 29°46' W 095°06'0 0.0
2018-Jan-12 00:25N 29°46' W 095°06'0 0.0
2018-Jan-11 23:58N 29°46' W 095°06'0 0.0
2018-Jan-11 23:25N 29°46' W 095°06'0 0.0
2018-Jan-11 22:59N 29°46' W 095°06'0 0.0
2018-Jan-11 22:30N 29°46' W 095°06'0 0.0
2018-Jan-11 12:13N 29°46' W 095°06'4 1.5
2018-Jan-11 09:31N 29°45' W 095°11'0 0.1
2018-Jan-11 09:24N 29°45' W 095°11'1 2.1
2018-Jan-11 08:59N 29°45' W 095°10'2 1.9
2018-Jan-11 07:52N 29°44' W 095°08'1 3.7
2018-Jan-11 07:30N 29°45' W 095°06'1 2.8
2018-Jan-11 07:00N 29°46' W 095°06'0 0.1
2018-Jan-11 06:29N 29°46' W 095°06'0 0.0
2018-Jan-11 00:12N 29°46' W 095°06'0 0.0
2018-Jan-10 23:59N 29°46' W 095°06'2 3.1
2018-Jan-10 23:25N 29°45' W 095°06'1 1.2
2018-Jan-10 22:31N 29°44' W 095°08'0 2.3
2018-Jan-10 22:29N 29°44' W 095°08'3 4.0
2018-Jan-10 21:51N 29°46' W 095°05'2 4.7
2018-Jan-10 21:23N 29°48' W 095°04'0 0.2
2018-Jan-10 20:30N 29°47' W 095°04'2 0.6
2018-Jan-10 16:13N 29°46' W 095°06'0 0.1
2018-Jan-10 14:19N 29°46' W 095°06'0 0.0
2018-Jan-10 13:24N 29°46' W 095°06'0 0.0
2018-Jan-10 12:56N 29°46' W 095°06'9 0.5
2018-Jan-09 18:38N 29°44' W 095°16'1 4.5
2018-Jan-09 18:30N 29°44' W 095°15'3 5.7
2018-Jan-09 18:00N 29°44' W 095°12'3 6.3
2018-Jan-09 17:30N 29°44' W 095°09'3 5.6
2018-Jan-09 16:58N 29°46' W 095°05'2 4.1
2018-Jan-09 16:26N 29°47' W 095°04'1 3.0
2018-Jan-09 15:58N 29°46' W 095°05'1 2.8
2018-Jan-09 15:28N 29°47' W 095°04'1 2.5
2018-Jan-09 14:58N 29°46' W 095°05'0 0.8
2018-Jan-09 14:31N 29°46' W 095°05'1 1.4
2018-Jan-09 13:30N 29°45' W 095°06'2 1.2
2018-Jan-09 11:28N 29°47' W 095°04'1 0.1
2018-Jan-09 04:42N 29°46' W 095°05'1 0.6
2018-Jan-09 03:02N 29°46' W 095°06'1 4.2
2018-Jan-09 02:43N 29°45' W 095°06'2 6.9
2018-Jan-09 02:28N 29°44' W 095°08'3 6.9
2018-Jan-09 01:59N 29°45' W 095°12'2 4.3
2018-Jan-09 01:30N 29°43' W 095°14'0 0.0
2018-Jan-09 01:00N 29°43' W 095°14'2 3.2
2018-Jan-09 00:26N 29°44' W 095°12'3 5.6
2018-Jan-08 23:59N 29°44' W 095°09'3 0.2
2018-Jan-08 03:06N 29°46' W 095°06'2 2.2
2018-Jan-08 02:24N 29°47' W 095°04'2 5.7
2018-Jan-08 01:59N 29°45' W 095°06'3 5.7
2018-Jan-08 01:30N 29°44' W 095°09'3 5.5
2018-Jan-08 01:00N 29°44' W 095°12'1 1.9
2018-Jan-08 00:18N 29°44' W 095°13'0 0.0
2018-Jan-07 23:50N 29°44' W 095°13'0 0.0
2018-Jan-07 23:28N 29°44' W 095°13'0 0.0
2018-Jan-07 22:56N 29°44' W 095°13'0 0.0
2018-Jan-07 22:30N 29°44' W 095°13'1 2.5
2018-Jan-07 22:00N 29°44' W 095°12'3 5.1
2018-Jan-07 21:29N 29°44' W 095°09'3 1.2
2018-Jan-07 18:35N 29°46' W 095°06'0 2.6
2018-Jan-07 18:29N 29°46' W 095°06'2 0.2
2018-Jan-07 07:05N 29°47' W 095°04'0 5.0
2018-Jan-07 07:00N 29°47' W 095°04'2 2.6
2018-Jan-07 06:20N 29°46' W 095°06'0 0.0
2018-Jan-07 06:00N 29°46' W 095°06'0 0.0
2018-Jan-07 05:30N 29°46' W 095°06'0 0.0
2018-Jan-07 05:01N 29°46' W 095°06'0 0.0
2018-Jan-07 04:28N 29°46' W 095°06'0 0.0
2018-Jan-07 03:51N 29°46' W 095°06'0 0.0
2018-Jan-07 03:29N 29°46' W 095°06'0 0.0
2018-Jan-07 02:54N 29°46' W 095°06'1 2.7
2018-Jan-07 02:30N 29°45' W 095°06'3 6.6
2018-Jan-07 02:00N 29°44' W 095°09'3 5.9
2018-Jan-07 01:30N 29°44' W 095°13'1 0.6
2018-Jan-07 00:29N 29°43' W 095°13'2 3.6
2018-Jan-07 00:00N 29°45' W 095°12'2 3.6
2018-Jan-06 23:30N 29°44' W 095°10'2 3.7
2018-Jan-06 23:00N 29°44' W 095°07'2 3.5
2018-Jan-06 22:26N 29°45' W 095°06'1 0.2
2018-Jan-06 18:14N 29°46' W 095°06'1 1.3
2018-Jan-06 17:06N 29°46' W 095°05'1 6.5
2018-Jan-06 17:00N 29°45' W 095°04'3 2.6
2018-Jan-06 15:56N 29°44' W 095°01'0 0.0
2018-Jan-06 15:17N 29°44' W 095°01'0 0.0
2018-Jan-06 15:00N 29°44' W 095°01'0 0.0
2018-Jan-06 14:24N 29°44' W 095°01'0 0.0
2018-Jan-06 13:56N 29°44' W 095°01'0 0.0
2018-Jan-06 13:28N 29°44' W 095°01'0 0.0
2018-Jan-06 12:59N 29°44' W 095°01'0 0.0
2018-Jan-06 12:27N 29°44' W 095°01'0 0.0
2018-Jan-06 11:53N 29°44' W 095°01'0 0.0
2018-Jan-06 11:28N 29°44' W 095°01'0 0.0
2018-Jan-06 10:56N 29°44' W 095°01'0 0.0
2018-Jan-06 10:26N 29°44' W 095°01'0 0.0
2018-Jan-06 09:57N 29°44' W 095°01'0 0.0
2018-Jan-06 08:37N 29°44' W 095°01'0 0.0
2018-Jan-06 08:15N 29°44' W 095°01'0 0.0
2018-Jan-06 07:58N 29°44' W 095°01'0 0.0
2018-Jan-06 07:29N 29°44' W 095°01'0 0.0
2018-Jan-06 07:00N 29°44' W 095°01'0 0.0
2018-Jan-06 06:31N 29°44' W 095°01'0 0.0
2018-Jan-06 05:57N 29°44' W 095°01'0 0.0
2018-Jan-06 05:30N 29°44' W 095°01'0 0.0
2018-Jan-06 05:00N 29°44' W 095°01'0 0.0
2018-Jan-06 04:25N 29°44' W 095°01'0 0.0
2018-Jan-06 03:54N 29°44' W 095°01'0 0.0
2018-Jan-06 03:26N 29°44' W 095°01'0 0.0
2018-Jan-06 02:56N 29°44' W 095°01'0 0.0
2018-Jan-06 02:30N 29°44' W 095°01'0 0.0
2018-Jan-06 01:55N 29°44' W 095°01'0 0.0
2018-Jan-06 01:26N 29°44' W 095°01'0 0.0
2018-Jan-05 12:23N 29°44' W 095°01'0 0.0
2018-Jan-05 11:59N 29°44' W 095°01'0 0.0
2018-Jan-05 11:30N 29°44' W 095°01'0 0.0
2018-Jan-05 11:00N 29°44' W 095°01'0 0.0
2018-Jan-05 10:25N 29°44' W 095°01'0 0.0
2018-Jan-05 09:55N 29°44' W 095°01'0 0.0
2018-Jan-05 09:29N 29°44' W 095°01'0 0.0
2018-Jan-05 09:00N 29°44' W 095°01'0 0.0
2018-Jan-05 08:30N 29°44' W 095°01'0 0.0
2018-Jan-05 08:00N 29°44' W 095°01'0 0.0
2018-Jan-05 07:30N 29°44' W 095°01'0 0.0
2018-Jan-05 07:00N 29°44' W 095°01'0 0.0
2018-Jan-05 06:30N 29°44' W 095°01'0 0.0
2018-Jan-05 05:58N 29°44' W 095°01'0 0.0
2018-Jan-05 05:30N 29°44' W 095°01'0 0.0
2018-Jan-05 05:00N 29°44' W 095°01'0 0.0
2018-Jan-05 04:31N 29°44' W 095°01'0 0.0
2018-Jan-05 04:00N 29°44' W 095°01'0 0.0
2018-Jan-05 03:28N 29°44' W 095°01'0 0.0
2018-Jan-05 02:53N 29°44' W 095°01'0 0.1
2018-Jan-04 22:42N 29°44' W 095°01'0 0.2
2018-Jan-04 21:06N 29°43' W 095°01'0 0.0
2018-Jan-04 14:52N 29°44' W 095°01'4 1.5
2018-Jan-04 12:00N 29°47' W 095°04'3 6.4
2018-Jan-04 11:30N 29°44' W 095°07'1 2.1
2018-Jan-04 10:59N 29°44' W 095°08'0 0.0
2018-Jan-04 10:29N 29°44' W 095°08'0 0.0
2018-Jan-04 09:59N 29°44' W 095°08'0 0.0
2018-Jan-04 09:30N 29°44' W 095°08'0 0.0
2018-Jan-04 08:59N 29°44' W 095°08'0 0.0
2018-Jan-04 08:25N 29°44' W 095°08'0 0.0
2018-Jan-04 07:59N 29°44' W 095°08'0 0.0
2018-Jan-04 06:44N 29°44' W 095°08'0 0.0
2018-Jan-04 06:30N 29°44' W 095°08'0 0.0
2018-Jan-04 06:00N 29°44' W 095°08'0 0.0
2018-Jan-03 17:51N 29°44' W 095°08'2 5.8
2018-Jan-03 17:30N 29°45' W 095°06'1 0.6
2018-Jan-03 15:41N 29°46' W 095°06'0 0.0
2018-Jan-03 15:14N 29°46' W 095°06'0 0.0
2018-Jan-03 09:19N 29°46' W 095°06'1 1.1
2018-Jan-03 08:19N 29°46' W 095°05'  
Track history (hours):
 
Tides and Currents Weather Stations Pressure Air Temp Water Temp Dewpoint Dewpoint Depression Visibility Wind Speed Wind Dir Waves Ship Positions

Kendall Alyse

Owner: The Tug Kendall Alyse, L.L.C., Sugar Land, TX. More information available from US FCC via Universal Licensing System and Coast Guard Vessel Documentation Center.

Last reported at 2018-Jan-12 14:33 UTC. Time now 2018-Jan-18 07:54 UTC.
Position N 29°45' W 095°10'.

Length 20 m.

MMSI: 357358340.

Date/timePositionNaut miles runAvg speedWind from/ knotsBaromVisibWave heightAir tempDewpointWater temp
2018-Jan-12 14:33N 29°45' W 095°10'0 2.2
2018-Jan-12 14:27N 29°45' W 095°10'2 5.4
2018-Jan-12 13:59N 29°44' W 095°07'2 1.2
2018-Jan-12 11:58N 29°46' W 095°06'0 0.0
2018-Jan-12 11:30N 29°46' W 095°06'0 0.0
2018-Jan-12 10:59N 29°46' W 095°06'0 0.0
2018-Jan-12 10:30N 29°46' W 095°06'0 0.0
2018-Jan-12 10:00N 29°46' W 095°06'0 0.0
2018-Jan-12 09:30N 29°46' W 095°06'0 0.0
2018-Jan-12 09:00N 29°46' W 095°06'0 0.0
2018-Jan-12 08:30N 29°46' W 095°06'0 0.0
2018-Jan-12 07:57N 29°46' W 095°06'0 0.0
2018-Jan-12 07:29N 29°46' W 095°06'0 0.0
2018-Jan-12 07:00N 29°46' W 095°06'0 0.0
2018-Jan-12 06:30N 29°46' W 095°06'0 0.0
2018-Jan-12 05:59N 29°46' W 095°06'0 0.0
2018-Jan-12 05:28N 29°46' W 095°06'0 0.0
2018-Jan-12 04:59N 29°46' W 095°06'0 0.0
2018-Jan-12 04:29N 29°46' W 095°06'0 0.0
2018-Jan-12 04:00N 29°46' W 095°06'0 0.0
2018-Jan-12 03:29N 29°46' W 095°06'0 0.0
2018-Jan-12 02:54N 29°46' W 095°06'0 0.0
2018-Jan-12 02:27N 29°46' W 095°06'0 0.0
2018-Jan-12 01:57N 29°46' W 095°06'0 0.0
2018-Jan-12 01:29N 29°46' W 095°06'0 0.0
2018-Jan-12 01:00N 29°46' W 095°06'0 0.0
2018-Jan-12 00:25N 29°46' W 095°06'0 0.0
2018-Jan-11 23:58N 29°46' W 095°06'0 0.0
2018-Jan-11 23:25N 29°46' W 095°06'0 0.0
2018-Jan-11 22:59N 29°46' W 095°06'0 0.0
2018-Jan-11 22:30N 29°46' W 095°06'0 0.0
2018-Jan-11 12:13N 29°46' W 095°06'4 1.5
2018-Jan-11 09:31N 29°45' W 095°11'0 0.1
2018-Jan-11 09:24N 29°45' W 095°11'1 2.1
2018-Jan-11 08:59N 29°45' W 095°10'2 1.9
2018-Jan-11 07:52N 29°44' W 095°08'1 3.7
2018-Jan-11 07:30N 29°45' W 095°06'1 2.8
2018-Jan-11 07:00N 29°46' W 095°06'0 0.1
2018-Jan-11 06:29N 29°46' W 095°06'0 0.0
2018-Jan-11 00:12N 29°46' W 095°06'0 0.0
2018-Jan-10 23:59N 29°46' W 095°06'2 3.1
2018-Jan-10 23:25N 29°45' W 095°06'1 1.2
2018-Jan-10 22:31N 29°44' W 095°08'0 2.3
2018-Jan-10 22:29N 29°44' W 095°08'3 4.0
2018-Jan-10 21:51N 29°46' W 095°05'2 4.7
2018-Jan-10 21:23N 29°48' W 095°04'0 0.2
2018-Jan-10 20:30N 29°47' W 095°04'2 0.6
2018-Jan-10 16:13N 29°46' W 095°06'0 0.1
2018-Jan-10 14:19N 29°46' W 095°06'0 0.0
2018-Jan-10 13:24N 29°46' W 095°06'0 0.0
2018-Jan-10 12:56N 29°46' W 095°06'9 0.5
2018-Jan-09 18:38N 29°44' W 095°16'1 4.5
2018-Jan-09 18:30N 29°44' W 095°15'3 5.7
2018-Jan-09 18:00N 29°44' W 095°12'3 6.3
2018-Jan-09 17:30N 29°44' W 095°09'3 5.6
2018-Jan-09 16:58N 29°46' W 095°05'2 4.1
2018-Jan-09 16:26N 29°47' W 095°04'1 3.0
2018-Jan-09 15:58N 29°46' W 095°05'1 2.8
2018-Jan-09 15:28N 29°47' W 095°04'1 2.5
2018-Jan-09 14:58N 29°46' W 095°05'0 0.8
2018-Jan-09 14:31N 29°46' W 095°05'1 1.4
2018-Jan-09 13:30N 29°45' W 095°06'2 1.2
2018-Jan-09 11:28N 29°47' W 095°04'1 0.1
2018-Jan-09 04:42N 29°46' W 095°05'1 0.6
2018-Jan-09 03:02N 29°46' W 095°06'1 4.2
2018-Jan-09 02:43N 29°45' W 095°06'2 6.9
2018-Jan-09 02:28N 29°44' W 095°08'3 6.9
2018-Jan-09 01:59N 29°45' W 095°12'2 4.3
2018-Jan-09 01:30N 29°43' W 095°14'0 0.0
2018-Jan-09 01:00N 29°43' W 095°14'2 3.2
2018-Jan-09 00:26N 29°44' W 095°12'3 5.6
2018-Jan-08 23:59N 29°44' W 095°09'3 0.2
2018-Jan-08 03:06N 29°46' W 095°06'2 2.2
2018-Jan-08 02:24N 29°47' W 095°04'2 5.7
2018-Jan-08 01:59N 29°45' W 095°06'3 5.7
2018-Jan-08 01:30N 29°44' W 095°09'3 5.5
2018-Jan-08 01:00N 29°44' W 095°12'1 1.9
2018-Jan-08 00:18N 29°44' W 095°13'0 0.0
2018-Jan-07 23:50N 29°44' W 095°13'0 0.0
2018-Jan-07 23:28N 29°44' W 095°13'0 0.0
2018-Jan-07 22:56N 29°44' W 095°13'0 0.0
2018-Jan-07 22:30N 29°44' W 095°13'1 2.5
2018-Jan-07 22:00N 29°44' W 095°12'3 5.1
2018-Jan-07 21:29N 29°44' W 095°09'3 1.2
2018-Jan-07 18:35N 29°46' W 095°06'0 2.6
2018-Jan-07 18:29N 29°46' W 095°06'2 0.2
2018-Jan-07 07:05N 29°47' W 095°04'0 5.0
2018-Jan-07 07:00N 29°47' W 095°04'2 2.6
2018-Jan-07 06:20N 29°46' W 095°06'0 0.0
2018-Jan-07 06:00N 29°46' W 095°06'0 0.0
2018-Jan-07 05:30N 29°46' W 095°06'0 0.0
2018-Jan-07 05:01N 29°46' W 095°06'0 0.0
2018-Jan-07 04:28N 29°46' W 095°06'0 0.0
2018-Jan-07 03:51N 29°46' W 095°06'0 0.0
2018-Jan-07 03:29N 29°46' W 095°06'0 0.0
2018-Jan-07 02:54N 29°46' W 095°06'1 2.7
2018-Jan-07 02:30N 29°45' W 095°06'3 6.6
2018-Jan-07 02:00N 29°44' W 095°09'3 5.9
2018-Jan-07 01:30N 29°44' W 095°13'1 0.6
2018-Jan-07 00:29N 29°43' W 095°13'2 3.6
2018-Jan-07 00:00N 29°45' W 095°12'2 3.6
2018-Jan-06 23:30N 29°44' W 095°10'2 3.7
2018-Jan-06 23:00N 29°44' W 095°07'2 3.5
2018-Jan-06 22:26N 29°45' W 095°06'1 0.2
2018-Jan-06 18:14N 29°46' W 095°06'1 1.3
2018-Jan-06 17:06N 29°46' W 095°05'1 6.5
2018-Jan-06 17:00N 29°45' W 095°04'3 2.6
2018-Jan-06 15:56N 29°44' W 095°01'0 0.0
2018-Jan-06 15:17N 29°44' W 095°01'0 0.0
2018-Jan-06 15:00N 29°44' W 095°01'0 0.0
2018-Jan-06 14:24N 29°44' W 095°01'0 0.0
2018-Jan-06 13:56N 29°44' W 095°01'0 0.0
2018-Jan-06 13:28N 29°44' W 095°01'0 0.0
2018-Jan-06 12:59N 29°44' W 095°01'0 0.0
2018-Jan-06 12:27N 29°44' W 095°01'0 0.0
2018-Jan-06 11:53N 29°44' W 095°01'0 0.0
2018-Jan-06 11:28N 29°44' W 095°01'0 0.0
2018-Jan-06 10:56N 29°44' W 095°01'0 0.0
2018-Jan-06 10:26N 29°44' W 095°01'0 0.0
2018-Jan-06 09:57N 29°44' W 095°01'0 0.0
2018-Jan-06 08:37N 29°44' W 095°01'0 0.0
2018-Jan-06 08:15N 29°44' W 095°01'0 0.0
2018-Jan-06 07:58N 29°44' W 095°01'0 0.0
2018-Jan-06 07:29N 29°44' W 095°01'0 0.0
2018-Jan-06 07:00N 29°44' W 095°01'0 0.0
2018-Jan-06 06:31N 29°44' W 095°01'0 0.0
2018-Jan-06 05:57N 29°44' W 095°01'0 0.0
2018-Jan-06 05:30N 29°44' W 095°01'0 0.0
2018-Jan-06 05:00N 29°44' W 095°01'0 0.0
2018-Jan-06 04:25N 29°44' W 095°01'0 0.0
2018-Jan-06 03:54N 29°44' W 095°01'0 0.0
2018-Jan-06 03:26N 29°44' W 095°01'0 0.0
2018-Jan-06 02:56N 29°44' W 095°01'0 0.0
2018-Jan-06 02:30N 29°44' W 095°01'0 0.0
2018-Jan-06 01:55N 29°44' W 095°01'0 0.0
2018-Jan-06 01:26N 29°44' W 095°01'0 0.0
2018-Jan-05 12:23N 29°44' W 095°01'0 0.0
2018-Jan-05 11:59N 29°44' W 095°01'0 0.0
2018-Jan-05 11:30N 29°44' W 095°01'0 0.0
2018-Jan-05 11:00N 29°44' W 095°01'0 0.0
2018-Jan-05 10:25N 29°44' W 095°01'0 0.0
2018-Jan-05 09:55N 29°44' W 095°01'0 0.0
2018-Jan-05 09:29N 29°44' W 095°01'0 0.0
2018-Jan-05 09:00N 29°44' W 095°01'0 0.0
2018-Jan-05 08:30N 29°44' W 095°01'0 0.0
2018-Jan-05 08:00N 29°44' W 095°01'0 0.0
2018-Jan-05 07:30N 29°44' W 095°01'0 0.0
2018-Jan-05 07:00N 29°44' W 095°01'0 0.0
2018-Jan-05 06:30N 29°44' W 095°01'0 0.0
2018-Jan-05 05:58N 29°44' W 095°01'0 0.0
2018-Jan-05 05:30N 29°44' W 095°01'0 0.0
2018-Jan-05 05:00N 29°44' W 095°01'0 0.0
2018-Jan-05 04:31N 29°44' W 095°01'0 0.0
2018-Jan-05 04:00N 29°44' W 095°01'0 0.0
2018-Jan-05 03:28N 29°44' W 095°01'0 0.0
2018-Jan-05 02:53N 29°44' W 095°01'0 0.1
2018-Jan-04 22:42N 29°44' W 095°01'0 0.2
2018-Jan-04 21:06N 29°43' W 095°01'0 0.0
2018-Jan-04 14:52N 29°44' W 095°01'4 1.5
2018-Jan-04 12:00N 29°47' W 095°04'3 6.4
2018-Jan-04 11:30N 29°44' W 095°07'1 2.1
2018-Jan-04 10:59N 29°44' W 095°08'0 0.0
2018-Jan-04 10:29N 29°44' W 095°08'0 0.0
2018-Jan-04 09:59N 29°44' W 095°08'0 0.0
2018-Jan-04 09:30N 29°44' W 095°08'0 0.0
2018-Jan-04 08:59N 29°44' W 095°08'0 0.0
2018-Jan-04 08:25N 29°44' W 095°08'0 0.0
2018-Jan-04 07:59N 29°44' W 095°08'0 0.0
2018-Jan-04 06:44N 29°44' W 095°08'0 0.0
2018-Jan-04 06:30N 29°44' W 095°08'0 0.0
2018-Jan-04 06:00N 29°44' W 095°08'0 0.0
2018-Jan-03 17:51N 29°44' W 095°08'2 5.8
2018-Jan-03 17:30N 29°45' W 095°06'1 0.6
2018-Jan-03 15:41N 29°46' W 095°06'0 0.0
2018-Jan-03 15:14N 29°46' W 095°06'0 0.0
2018-Jan-03 09:19N 29°46' W 095°06'1 1.1
2018-Jan-03 08:19N 29°46' W 095°05'  

Dump ship's entire track history